McKnight, Texas
Current Conditions -  °F | °C
As of 12:55 AM on Saturday 25 Oct 2014 (Local Time) from KRFI Reporting Station
Clear Clear  
Wind Chill: 57°   Ceiling: Unl
Heat Index: 57°   Visibility: 10mi
Dew Point: 56°   Wind: 0mph
Humidity: 97%   Direction: NA
Pressure: 30.14"   Gusts: NA
Location:  32.1449°N, 94.7416°W
Report Text: KRFI 250555Z AUTO 00000KT 10SM CLR 14/13 A3014 RMK AO2 T01370133 10194 20137 402610095
Loading
Personal Weather Stations






























Interactive Weather Map
Tropical Storm Tracking
New forecast layout! Learn more

10-Day Weather Forecast

Advertisements
Track Severe Weather on mobile